createdAt,value
2019-03-05T00:00:31.701Z,74.20
2019-03-05T00:01:22.697Z,74.30
2019-03-05T00:01:57.262Z,74.50
2019-03-05T00:02:31.753Z,74.60
2019-03-05T00:03:06.385Z,74.80
2019-03-05T00:03:40.872Z,74.80
2019-03-05T00:04:15.364Z,74.80
2019-03-05T00:04:49.860Z,74.80
2019-03-05T00:05:24.424Z,75.00
2019-03-05T00:05:58.924Z,75.00
2019-03-05T00:06:33.453Z,75.00
2019-03-05T00:07:07.962Z,75.10
2019-03-05T00:07:42.462Z,75.10
2019-03-05T00:08:17.021Z,75.30
2019-03-05T00:08:51.526Z,75.40
2019-03-05T00:09:26.082Z,75.40
2019-03-05T00:10:00.663Z,75.40
2019-03-05T00:10:35.157Z,75.40
2019-03-05T00:11:09.787Z,75.40
2019-03-05T00:11:44.284Z,75.40
2019-03-05T00:12:18.860Z,75.70
2019-03-05T00:12:53.364Z,75.60
2019-03-05T00:13:27.851Z,75.60
2019-03-05T00:14:02.343Z,75.70
2019-03-05T02:09:40.398Z,79.50
2019-03-05T02:10:18.141Z,79.70
2019-03-05T02:10:52.717Z,79.70
2019-03-05T02:13:13.662Z,79.50
2019-03-05T02:13:48.221Z,79.60
2019-03-05T02:14:22.716Z,79.70
2019-03-05T02:14:57.224Z,79.80
2019-03-05T02:15:31.967Z,79.70
2019-03-05T02:16:06.584Z,79.60
2019-03-05T02:16:41.082Z,79.70
2019-03-05T02:17:15.656Z,79.70
2019-03-05T02:17:50.151Z,79.70
2019-03-05T02:18:26.478Z,79.90
2019-03-05T02:19:37.816Z,79.90
2019-03-05T02:20:18.334Z,80.60
2019-03-05T02:20:52.821Z,79.70
2019-03-05T02:21:27.312Z,79.60
2019-03-05T02:22:01.873Z,79.60
2019-03-05T02:23:24.159Z,79.60
2019-03-05T02:49:27.341Z,79.10
2019-03-05T02:50:09.779Z,79.20
2019-03-05T02:51:06.437Z,79.00
2019-03-05T02:51:44.017Z,79.00
2019-03-05T02:52:27.099Z,78.90
2019-03-05T02:53:07.230Z,79.00
2019-03-05T02:53:50.631Z,78.80
2019-03-05T02:54:47.524Z,79.00
2019-03-05T02:55:41.602Z,78.80
2019-03-05T02:56:35.726Z,78.80
2019-03-05T02:57:09.748Z,79.00
2019-03-05T02:57:43.270Z,79.00
2019-03-05T02:58:16.694Z,78.90
2019-03-05T02:58:50.113Z,78.90
2019-03-05T02:59:24.742Z,78.90
2019-03-05T02:59:59.323Z,78.90
2019-03-05T03:11:48.504Z,78.70
2019-03-05T03:13:14.146Z,78.60
2019-03-05T03:13:48.644Z,78.70
2019-03-05T03:14:23.259Z,79.00
2019-03-05T03:14:57.823Z,79.10
2019-03-05T03:15:32.315Z,78.80
2019-03-05T03:16:06.819Z,78.80
2019-03-05T03:16:41.385Z,78.80
2019-03-05T03:17:15.891Z,78.50
2019-03-05T03:17:50.562Z,78.30
2019-03-05T03:18:25.117Z,78.10
2019-03-05T03:18:59.628Z,78.20
2019-03-05T03:19:34.114Z,78.10
2019-03-05T03:20:10.848Z,78.30
2019-03-05T03:20:45.404Z,78.40
2019-03-05T03:21:19.928Z,78.50
2019-03-05T03:21:54.496Z,78.40
2019-03-05T03:22:29.081Z,78.20
2019-03-05T03:23:03.573Z,78.40
2019-03-05T03:23:38.141Z,78.20
2019-03-05T03:24:12.641Z,78.20
2019-03-05T03:24:47.232Z,78.10
2019-03-05T03:25:21.972Z,77.90
2019-03-05T03:25:56.602Z,78.00
2019-03-05T03:26:31.172Z,77.90
2019-03-05T03:27:05.733Z,78.60
2019-03-05T03:27:40.309Z,78.00
2019-03-05T03:28:14.850Z,78.00
2019-03-05T03:28:49.332Z,78.10
2019-03-05T03:29:23.840Z,78.00
2019-03-05T03:29:58.396Z,78.00
2019-03-05T03:30:32.964Z,77.80
2019-03-05T03:31:07.519Z,77.90
2019-03-05T03:31:42.086Z,78.00
2019-03-05T03:32:16.590Z,77.70
2019-03-05T03:32:51.201Z,77.70
2019-03-05T03:33:25.740Z,77.70
2019-03-05T03:34:00.304Z,77.80
2019-03-05T03:34:34.786Z,78.00
2019-03-05T03:35:11.307Z,77.80
2019-03-05T03:35:45.861Z,77.80
2019-03-05T03:36:20.364Z,77.60
2019-03-05T03:36:55.006Z,77.60
2019-03-05T03:37:29.908Z,77.50
2019-03-05T03:38:04.470Z,77.50
2019-03-05T03:38:38.988Z,77.40
2019-03-05T03:39:13.617Z,77.40
2019-03-05T03:39:48.197Z,77.60
2019-03-05T03:40:22.938Z,77.60
2019-03-05T03:40:57.564Z,77.50
2019-03-05T03:41:34.938Z,77.30
2019-03-05T03:42:09.461Z,77.40
2019-03-05T03:42:44.089Z,77.40
2019-03-05T03:43:18.599Z,77.50
2019-03-05T03:43:53.082Z,77.60
2019-03-05T03:44:27.599Z,77.80
2019-03-05T03:45:02.180Z,77.60
2019-03-05T03:45:36.719Z,77.40
2019-03-05T03:46:11.281Z,77.20
2019-03-05T03:46:45.793Z,77.30
2019-03-05T03:47:20.311Z,77.20
2019-03-05T03:47:54.941Z,77.20
2019-03-05T03:48:29.506Z,77.20
2019-03-05T03:49:04.002Z,77.50
2019-03-05T03:49:38.778Z,77.50
2019-03-05T03:50:14.177Z,77.50
2019-03-05T03:50:48.721Z,77.30
2019-03-05T03:51:23.221Z,77.30
2019-03-05T03:51:57.790Z,77.30
2019-03-05T03:52:32.350Z,77.40
2019-03-05T03:53:06.850Z,77.20
2019-03-05T03:53:41.417Z,77.00
2019-03-05T03:54:15.902Z,76.90
2019-03-05T03:54:50.402Z,77.10
2019-03-05T03:55:25.033Z,77.10
2019-03-05T03:55:59.537Z,77.20
2019-03-05T03:56:34.026Z,77.00
2019-03-05T03:57:08.599Z,77.20
2019-03-05T03:57:43.157Z,76.90
2019-03-05T03:58:17.740Z,76.90
2019-03-05T03:58:52.297Z,76.90
2019-03-05T03:59:26.804Z,77.00
2019-03-05T04:00:01.369Z,76.90
2019-03-05T04:00:35.938Z,76.90
2019-03-05T04:01:10.570Z,76.70
2019-03-05T04:01:45.066Z,76.70
2019-03-05T04:02:19.629Z,76.60
2019-03-05T04:02:54.119Z,76.70
2019-03-05T04:03:28.715Z,76.60
2019-03-05T04:04:03.285Z,76.50
2019-03-05T04:04:37.800Z,76.60
2019-03-05T04:05:12.548Z,76.80
2019-03-05T04:05:47.170Z,76.50
2019-03-05T04:06:21.665Z,76.20
2019-03-05T04:06:56.234Z,76.10
2019-03-05T04:07:30.811Z,76.10
2019-03-05T04:08:05.375Z,76.10
2019-03-05T04:08:39.935Z,76.30
2019-03-05T04:09:14.447Z,76.00
2019-03-05T04:09:49.006Z,75.90
2019-03-05T04:10:23.506Z,75.90
2019-03-05T04:10:58.114Z,76.00
2019-03-05T04:11:32.600Z,75.80
2019-03-05T04:12:07.110Z,75.80
2019-03-05T04:12:41.944Z,75.80
2019-03-05T04:13:16.692Z,75.70
2019-03-05T04:13:51.232Z,75.70
2019-03-05T04:14:25.802Z,75.40
2019-03-05T04:15:00.445Z,75.50
2019-03-05T04:15:35.248Z,75.40
2019-03-05T04:16:09.820Z,75.50
2019-03-05T04:16:44.328Z,75.40
2019-03-05T04:17:18.817Z,75.30
2019-03-05T04:17:53.314Z,75.10
2019-03-05T04:18:27.871Z,75.20
2019-03-05T04:19:04.005Z,75.20
2019-03-05T04:19:38.489Z,75.10
2019-03-05T04:20:16.606Z,74.90
2019-03-05T04:20:52.465Z,75.00
2019-03-05T04:21:27.026Z,74.60
2019-03-05T04:22:01.520Z,74.50
2019-03-05T04:22:36.295Z,74.50
2019-03-05T04:23:10.865Z,74.40
2019-03-05T04:23:45.429Z,74.50
2019-03-05T04:24:19.991Z,74.40
2019-03-05T04:24:54.479Z,74.40
2019-03-05T04:25:28.972Z,74.20
2019-03-05T04:26:03.539Z,74.30
2019-03-05T04:26:38.042Z,74.20
2019-03-05T04:27:12.540Z,74.10
2019-03-05T04:27:47.105Z,74.10
2019-03-05T04:28:21.688Z,74.00
2019-03-05T04:28:56.163Z,74.00
2019-03-05T04:29:30.656Z,74.00
2019-03-05T04:30:08.566Z,74.10
2019-03-05T04:30:43.126Z,74.10
2019-03-05T04:31:17.689Z,73.80
2019-03-05T04:31:52.195Z,73.70
2019-03-05T04:32:26.758Z,73.90
2019-03-05T04:33:01.392Z,74.00
2019-03-05T04:33:35.892Z,74.10
2019-03-05T04:34:10.466Z,74.30
2019-03-05T04:34:45.017Z,74.40
2019-03-05T04:35:19.508Z,74.20
2019-03-05T04:35:54.042Z,73.90
2019-03-05T04:36:28.548Z,74.00
2019-03-05T04:37:03.036Z,73.80
2019-03-05T04:37:37.547Z,73.80
2019-03-05T04:38:12.041Z,73.90
2019-03-05T04:38:46.504Z,73.80
2019-03-05T04:39:20.964Z,73.60
2019-03-05T04:39:55.440Z,73.70
2019-03-05T04:40:29.901Z,73.60
2019-03-05T04:41:04.415Z,73.50
2019-03-05T04:41:38.960Z,73.70
2019-03-05T04:42:13.427Z,73.80
2019-03-05T04:42:47.887Z,73.80
2019-03-05T04:43:22.363Z,73.80
2019-03-05T04:43:56.810Z,73.80
2019-03-05T04:44:32.906Z,73.60
2019-03-05T04:45:46.355Z,73.50
2019-03-05T04:46:31.290Z,73.50
2019-03-05T04:47:05.992Z,73.80
2019-03-05T04:47:40.450Z,73.80
2019-03-05T04:48:14.907Z,73.50
2019-03-05T04:48:51.017Z,73.30
2019-03-05T04:49:42.185Z,73.40
2019-03-05T04:50:18.269Z,73.40
2019-03-05T04:50:57.285Z,73.40
2019-03-05T04:51:33.393Z,74.10
2019-03-05T04:52:15.669Z,73.50
2019-03-05T04:52:50.124Z,73.70
2019-03-05T04:53:24.583Z,73.60
2019-03-05T04:53:59.025Z,73.50
2019-03-05T04:54:33.759Z,73.50
2019-03-05T04:55:08.294Z,73.70
2019-03-05T04:55:42.764Z,73.50
2019-03-05T04:56:17.284Z,73.30
2019-03-05T04:56:51.782Z,73.20
2019-03-05T04:57:26.242Z,73.20
2019-03-05T04:58:00.692Z,73.20
2019-03-05T04:58:35.140Z,73.20
2019-03-05T04:59:09.591Z,73.20
2019-03-05T04:59:44.054Z,73.40
2019-03-05T05:00:19.019Z,73.50
2019-03-05T05:00:53.481Z,73.30
2019-03-05T05:01:27.977Z,73.10
2019-03-05T05:02:02.468Z,73.30
2019-03-05T05:02:36.935Z,73.30
2019-03-05T05:03:11.426Z,73.30
2019-03-05T05:03:45.938Z,73.40
2019-03-05T05:04:20.401Z,73.40
2019-03-05T05:04:54.854Z,73.30
2019-03-05T05:05:29.305Z,73.30
2019-03-05T05:06:03.834Z,73.30
2019-03-05T05:06:38.290Z,73.60
2019-03-05T05:07:12.744Z,73.70
2019-03-05T05:07:47.220Z,73.80
2019-03-05T05:08:21.756Z,73.90
2019-03-05T05:08:56.201Z,74.10
2019-03-05T05:09:31.647Z,74.10
2019-03-05T05:10:08.019Z,74.00
2019-03-05T05:10:43.104Z,74.10
2019-03-05T05:11:17.561Z,74.10
2019-03-05T05:11:52.027Z,74.00
2019-03-05T05:12:26.481Z,74.00
2019-03-05T05:13:00.922Z,74.30
2019-03-05T05:13:35.389Z,74.20
2019-03-05T05:14:09.861Z,74.10
2019-03-05T05:14:44.299Z,74.10
2019-03-05T05:15:32.702Z,74.10
2019-03-05T05:16:07.153Z,74.20
2019-03-05T05:16:41.614Z,74.20
2019-03-05T05:17:16.075Z,74.20
2019-03-05T05:17:50.530Z,74.20
2019-03-05T05:18:24.989Z,74.40
2019-03-05T05:18:59.449Z,74.50
2019-03-05T05:19:33.899Z,74.50
2019-03-05T05:20:08.432Z,74.50
2019-03-05T05:20:42.906Z,74.50
2019-03-05T05:21:17.391Z,74.40
2019-03-05T05:21:51.912Z,74.40
2019-03-05T05:22:26.420Z,74.50
2019-03-05T05:23:00.878Z,74.70
2019-03-05T05:23:35.335Z,74.70
2019-03-05T05:24:09.792Z,74.50
2019-03-05T05:24:44.265Z,74.40
2019-03-05T05:25:19.031Z,74.30
2019-03-05T05:25:53.557Z,74.30
2019-03-05T05:26:28.011Z,74.40
2019-03-05T05:27:02.477Z,74.40
2019-03-05T05:27:36.949Z,74.50
2019-03-05T05:28:11.409Z,74.70
2019-03-05T05:28:45.861Z,74.50
2019-03-05T05:29:20.312Z,74.50
2019-03-05T05:29:54.803Z,74.70
2019-03-05T05:30:37.432Z,74.70
2019-03-05T05:31:11.889Z,74.70
2019-03-05T05:31:46.339Z,74.70
2019-03-05T05:32:20.837Z,74.70
2019-03-05T05:32:55.294Z,74.80
2019-03-05T05:33:30.019Z,74.80
2019-03-05T05:34:04.656Z,74.80
2019-03-05T05:34:39.095Z,75.00
2019-03-05T05:35:13.581Z,75.00
2019-03-05T05:35:48.023Z,75.10
2019-03-05T05:36:22.496Z,75.10
2019-03-05T05:36:56.970Z,75.10
2019-03-05T05:37:31.511Z,75.10
2019-03-05T05:38:06.105Z,75.10
2019-03-05T05:38:40.571Z,75.30
2019-03-05T05:39:51.186Z,75.30
2019-03-05T05:40:31.258Z,75.30
2019-03-05T05:41:05.725Z,75.20
2019-03-05T05:41:40.195Z,75.30
2019-03-05T05:42:14.663Z,75.30
2019-03-05T05:42:49.107Z,75.20
2019-03-05T05:43:26.154Z,75.20
2019-03-05T05:44:00.618Z,75.20
2019-03-05T05:44:35.079Z,75.30
2019-03-05T05:45:12.942Z,75.40
2019-03-05T05:45:52.054Z,75.50
2019-03-05T05:46:26.519Z,75.40
2019-03-05T05:47:00.979Z,75.50
2019-03-05T05:47:35.426Z,75.50
2019-03-05T05:48:09.881Z,75.40
2019-03-05T05:48:44.338Z,75.30
2019-03-05T05:49:18.787Z,75.30
2019-03-05T05:49:53.237Z,75.20
2019-03-05T05:50:27.944Z,75.40
2019-03-05T05:51:02.398Z,75.40
2019-03-05T05:51:36.859Z,75.30
2019-03-05T05:52:11.339Z,75.30
2019-03-05T05:52:45.868Z,75.40
2019-03-05T05:53:20.328Z,75.40
2019-03-05T05:53:54.782Z,75.40
2019-03-05T05:54:29.283Z,75.50
2019-03-05T05:55:04.306Z,75.50
2019-03-05T05:55:38.796Z,75.50
2019-03-05T05:56:13.247Z,75.50
2019-03-05T05:56:47.703Z,75.50
2019-03-05T05:57:22.154Z,75.40
2019-03-05T05:57:56.682Z,75.20
2019-03-05T05:58:31.157Z,75.20
2019-03-05T05:59:05.656Z,75.40
2019-03-05T05:59:40.120Z,75.30
2019-03-05T06:00:16.409Z,75.40
2019-03-05T06:00:55.376Z,75.30
2019-03-05T06:01:29.836Z,75.30
2019-03-05T06:02:04.310Z,75.40
2019-03-05T06:02:38.773Z,75.50
2019-03-05T06:03:13.221Z,75.60
2019-03-05T06:03:47.702Z,75.50
2019-03-05T06:04:22.161Z,75.50
2019-03-05T06:04:56.611Z,75.30
2019-03-05T06:05:31.067Z,75.40
2019-03-05T06:06:05.526Z,75.40
2019-03-05T06:06:39.984Z,75.30
2019-03-05T06:07:14.503Z,75.20
2019-03-05T06:07:49.042Z,75.40
2019-03-05T06:08:23.590Z,75.30
2019-03-05T06:08:58.114Z,75.40
2019-03-05T06:09:32.657Z,75.60
2019-03-05T06:10:11.877Z,75.30
2019-03-05T06:10:46.474Z,75.20
2019-03-05T06:11:21.260Z,75.10
2019-03-05T06:11:58.781Z,75.10
2019-03-05T06:12:33.732Z,75.00
2019-03-05T06:13:08.258Z,75.00
2019-03-05T06:13:42.729Z,74.90
2019-03-05T06:14:17.181Z,74.70
2019-03-05T06:14:51.643Z,74.50
2019-03-05T06:15:26.096Z,74.40
2019-03-05T06:16:02.156Z,74.40
2019-03-05T06:16:38.140Z,74.50
2019-03-05T06:17:12.620Z,74.60
2019-03-05T06:17:47.539Z,74.60
2019-03-05T06:18:22.139Z,74.50
2019-03-05T06:18:56.651Z,74.60
2019-03-05T06:19:31.124Z,74.80
2019-03-05T06:20:11.284Z,74.80
2019-03-05T06:20:48.692Z,74.80
2019-03-05T06:21:23.157Z,74.60
2019-03-05T06:21:59.651Z,74.70
2019-03-05T06:22:34.230Z,74.90
2019-03-05T06:23:08.944Z,74.90
2019-03-05T06:23:46.847Z,74.90
2019-03-05T06:24:23.101Z,75.00
2019-03-05T06:24:57.677Z,75.00
2019-03-05T06:25:32.368Z,75.00
2019-03-05T06:26:08.767Z,75.00
2019-03-05T06:26:43.227Z,74.90
2019-03-05T06:27:17.915Z,75.00
2019-03-05T06:27:52.605Z,74.90
2019-03-05T06:28:28.955Z,74.50
2019-03-05T06:29:03.467Z,74.60
2019-03-05T06:29:39.265Z,74.70
2019-03-05T06:30:20.754Z,74.80
2019-03-05T06:30:55.609Z,75.00
2019-03-05T06:31:30.188Z,75.10
2019-03-05T06:32:04.721Z,75.00
2019-03-05T06:32:39.223Z,75.00
2019-03-05T06:33:13.730Z,75.20
2019-03-05T06:33:48.222Z,75.00
2019-03-05T06:34:23.054Z,74.80
2019-03-05T06:34:57.616Z,74.80
2019-03-05T06:35:32.197Z,74.80
2019-03-05T06:36:06.736Z,74.90
2019-03-05T06:36:47.150Z,74.70
2019-03-05T06:37:21.746Z,74.80
2019-03-05T06:37:56.249Z,74.80
2019-03-05T06:38:30.741Z,74.80
2019-03-05T06:39:05.887Z,74.70
2019-03-05T06:39:40.382Z,74.70
2019-03-05T06:40:17.286Z,74.70
2019-03-05T06:40:51.772Z,74.80
2019-03-05T06:41:26.251Z,75.00
2019-03-05T06:42:00.757Z,74.80
2019-03-05T06:42:35.255Z,74.80
2019-03-05T06:43:09.755Z,74.70
2019-03-05T06:43:44.386Z,74.70
2019-03-05T06:44:18.873Z,74.80
2019-03-05T06:44:53.365Z,74.70
2019-03-05T06:45:28.000Z,74.70
2019-03-05T06:46:02.493Z,74.80
2019-03-05T06:46:36.986Z,74.90
2019-03-05T06:47:11.475Z,74.50
2019-03-05T06:47:45.965Z,74.50
2019-03-05T06:48:20.455Z,74.40
2019-03-05T06:48:54.944Z,74.50
2019-03-05T06:49:29.453Z,74.40
2019-03-05T06:50:04.412Z,74.50
2019-03-05T06:50:38.980Z,74.50
2019-03-05T06:51:13.536Z,74.20
2019-03-05T06:51:48.036Z,74.20
2019-03-05T06:52:22.537Z,74.10
2019-03-05T06:52:57.292Z,74.00
2019-03-05T06:53:31.794Z,74.10
2019-03-05T06:54:06.349Z,74.20
2019-03-05T06:54:40.838Z,74.30
2019-03-05T06:55:15.974Z,74.30
2019-03-05T06:55:50.458Z,74.20
2019-03-05T06:56:25.030Z,74.20
2019-03-05T06:56:59.520Z,74.20
2019-03-05T06:57:34.008Z,74.10
2019-03-05T06:58:08.496Z,73.90
2019-03-05T06:58:42.990Z,73.80
2019-03-05T06:59:17.495Z,73.70
2019-03-05T06:59:51.978Z,73.70
2019-03-05T07:00:32.794Z,73.40
2019-03-05T07:01:07.571Z,73.40
2019-03-05T07:01:42.074Z,73.30
2019-03-05T07:02:17.481Z,73.10
2019-03-05T07:02:51.965Z,73.20
2019-03-05T07:03:26.464Z,73.10
2019-03-05T07:04:01.073Z,73.10
2019-03-05T07:04:35.620Z,73.30
2019-03-05T07:05:46.237Z,73.30
2019-03-05T07:06:52.822Z,73.40
2019-03-05T07:07:27.389Z,73.30
2019-03-05T07:08:01.877Z,73.20
2019-03-05T07:08:38.205Z,73.10
2019-03-05T07:09:33.813Z,73.00
2019-03-05T07:10:13.981Z,73.20
2019-03-05T07:11:07.883Z,72.80
2019-03-05T07:11:45.445Z,72.70
2019-03-05T07:12:28.893Z,72.90
2019-03-05T07:13:03.524Z,72.70
2019-03-05T07:13:38.018Z,72.40
2019-03-05T07:14:15.576Z,72.20
2019-03-05T07:14:53.130Z,72.30
2019-03-05T07:15:51.748Z,72.30
2019-03-05T07:16:34.811Z,72.20
2019-03-05T07:17:23.996Z,72.30
2019-03-05T07:18:07.329Z,72.60
2019-03-05T07:18:44.257Z,73.00
2019-03-05T07:19:20.076Z,72.30
2019-03-05T07:20:06.365Z,72.10
2019-03-05T07:21:13.969Z,72.40
2019-03-05T07:21:51.806Z,71.60
2019-03-05T07:22:57.292Z,71.70
2019-03-05T07:23:37.421Z,71.50
2019-03-05T07:24:40.345Z,71.30
2019-03-05T07:25:14.985Z,71.40
2019-03-05T07:25:49.532Z,71.50
2019-03-05T07:26:24.029Z,71.60
2019-03-05T07:26:58.540Z,71.50
2019-03-05T07:27:33.322Z,71.50
2019-03-05T07:28:07.881Z,71.50
2019-03-05T07:28:42.406Z,71.60
2019-03-05T07:29:18.107Z,71.70
2019-03-05T07:29:53.829Z,71.70
2019-03-05T07:30:28.316Z,71.70
2019-03-05T07:31:02.810Z,71.90
2019-03-05T07:31:37.292Z,72.00
2019-03-05T07:32:11.785Z,71.80
2019-03-05T07:32:46.283Z,71.70
2019-03-05T07:33:20.774Z,71.70
2019-03-05T07:33:55.330Z,71.50
2019-03-05T07:34:31.462Z,71.60
2019-03-05T07:35:09.638Z,71.70
2019-03-05T07:35:44.191Z,71.90
2019-03-05T07:36:18.696Z,71.90
2019-03-05T07:36:53.186Z,71.70
2019-03-05T07:37:27.676Z,71.80
2019-03-05T07:38:02.195Z,71.80
2019-03-05T07:38:36.731Z,71.80
2019-03-05T07:39:15.048Z,71.90
2019-03-05T07:39:49.698Z,72.00
2019-03-05T07:40:24.284Z,71.80
2019-03-05T07:40:58.840Z,71.80
2019-03-05T07:41:33.329Z,71.90
2019-03-05T07:42:07.826Z,72.00
2019-03-05T07:42:42.427Z,72.10
2019-03-05T07:43:16.926Z,72.30
2019-03-05T07:43:51.425Z,72.30
2019-03-05T07:44:25.980Z,72.00
2019-03-05T07:45:00.476Z,71.80
2019-03-05T07:45:35.043Z,71.80
2019-03-05T07:46:09.540Z,72.30
2019-03-05T07:46:44.041Z,71.70
2019-03-05T07:47:18.540Z,71.60
2019-03-05T07:47:53.027Z,71.70
2019-03-05T07:48:29.579Z,71.50
2019-03-05T07:49:03.696Z,71.60
2019-03-05T07:49:43.650Z,71.50
2019-03-05T07:50:14.487Z,71.60
2019-03-05T07:50:48.977Z,71.90
2019-03-05T07:51:23.469Z,71.80
2019-03-05T07:51:58.038Z,71.90
2019-03-05T07:52:32.613Z,71.90
2019-03-05T07:53:07.140Z,71.70
2019-03-05T07:53:41.635Z,71.50
2019-03-05T07:54:16.129Z,71.70
2019-03-05T07:54:52.461Z,71.90
2019-03-05T07:55:26.865Z,71.90
2019-03-05T07:56:01.372Z,71.90
2019-03-05T07:56:36.079Z,71.60
2019-03-05T07:57:10.682Z,71.60
2019-03-05T07:57:45.173Z,71.50
2019-03-05T07:58:19.669Z,71.60
2019-03-05T07:58:54.156Z,71.90
2019-03-05T07:59:28.633Z,72.00
2019-03-05T08:00:05.473Z,72.20
2019-03-05T08:00:40.134Z,72.30
2019-03-05T08:01:22.242Z,72.10
2019-03-05T08:01:50.806Z,72.00
2019-03-05T08:02:25.297Z,72.10
2019-03-05T08:02:59.784Z,71.70
2019-03-05T08:03:34.294Z,71.40
2019-03-05T08:04:08.814Z,71.50
2019-03-05T08:04:43.380Z,71.50
2019-03-05T08:05:18.011Z,71.50
2019-03-05T08:05:52.576Z,71.40
2019-03-05T08:06:27.065Z,71.30
2019-03-05T08:07:01.554Z,71.50
2019-03-05T08:07:36.082Z,71.50
2019-03-05T08:08:46.772Z,71.70
2019-03-05T08:09:29.796Z,71.60
2019-03-05T08:10:21.879Z,71.30
2019-03-05T08:10:56.417Z,71.30
2019-03-05T08:11:31.864Z,71.30
2019-03-05T08:12:09.579Z,71.20
2019-03-05T08:13:01.836Z,71.00
2019-03-05T08:13:39.410Z,70.70
2019-03-05T08:14:28.855Z,70.20
2019-03-05T08:15:08.979Z,70.30
2019-03-05T08:16:11.262Z,70.00
2019-03-05T08:16:45.761Z,70.00
2019-03-05T08:17:20.269Z,70.40
2019-03-05T08:17:54.790Z,70.50
2019-03-05T08:18:29.295Z,70.40
2019-03-05T08:19:03.786Z,70.50
2019-03-05T08:19:38.269Z,70.50
2019-03-05T08:20:12.934Z,70.70
2019-03-05T08:20:47.793Z,70.70
2019-03-05T08:21:22.283Z,70.70
2019-03-05T08:21:56.776Z,70.70
2019-03-05T08:22:31.265Z,70.60
2019-03-05T08:23:05.760Z,70.60
2019-03-05T08:23:40.247Z,70.40
2019-03-05T08:24:14.726Z,70.30
2019-03-05T08:24:49.491Z,70.20
2019-03-05T08:25:23.972Z,69.90
2019-03-05T08:25:58.470Z,69.90
2019-03-05T08:26:32.999Z,70.60
2019-03-05T08:27:07.560Z,70.10
2019-03-05T08:27:42.057Z,70.00
2019-03-05T08:28:16.636Z,69.70
2019-03-05T08:28:51.189Z,69.50
2019-03-05T08:29:25.752Z,69.50
2019-03-05T08:30:00.413Z,69.30
2019-03-05T08:30:35.059Z,69.50
2019-03-05T08:31:09.546Z,69.50
2019-03-05T08:31:44.039Z,69.70
2019-03-05T08:32:18.540Z,69.70
2019-03-05T08:32:53.039Z,69.80
2019-03-05T08:33:27.601Z,69.80
2019-03-05T08:34:02.110Z,69.70
2019-03-05T08:34:36.722Z,69.20
2019-03-05T08:35:11.672Z,69.10
2019-03-05T08:35:46.163Z,69.20
2019-03-05T08:36:20.652Z,69.10
2019-03-05T08:36:55.146Z,69.20
2019-03-05T08:37:29.895Z,69.40
2019-03-05T08:38:04.489Z,69.00
2019-03-05T08:38:39.071Z,68.70
2019-03-05T08:39:13.842Z,68.80
2019-03-05T08:39:48.554Z,69.00
2019-03-05T08:40:23.803Z,68.90
2019-03-05T08:40:58.450Z,68.80
2019-03-05T08:41:33.099Z,68.80
2019-03-05T08:42:08.048Z,68.90
2019-03-05T08:42:42.577Z,69.00
2019-03-05T08:43:17.065Z,68.10
2019-03-05T08:43:54.164Z,68.00
2019-03-05T08:44:27.745Z,67.90
2019-03-05T08:45:02.236Z,67.90
2019-03-05T08:45:36.799Z,67.80
2019-03-05T08:46:11.298Z,67.80
2019-03-05T08:46:45.785Z,67.40
2019-03-05T08:47:20.272Z,67.30
2019-03-05T08:47:54.759Z,67.40
2019-03-05T08:48:29.253Z,67.30
2019-03-05T08:49:03.801Z,67.40
2019-03-05T08:49:38.309Z,66.60
2019-03-05T08:50:15.914Z,66.70
2019-03-05T08:50:50.395Z,66.60
2019-03-05T08:51:24.967Z,66.30
2019-03-05T08:51:59.524Z,66.40
2019-03-05T08:52:34.014Z,66.30
2019-03-05T08:53:08.509Z,65.50
2019-03-05T08:53:49.478Z,65.30
2019-03-05T08:54:19.199Z,65.50
2019-03-05T08:54:53.688Z,65.70
2019-03-05T08:55:28.222Z,65.80
2019-03-05T08:56:02.785Z,65.60
2019-03-05T08:56:37.274Z,65.90
2019-03-05T08:57:11.840Z,65.50
2019-03-05T08:57:46.332Z,65.70
2019-03-05T08:58:20.813Z,65.50
2019-03-05T08:58:55.330Z,65.40
2019-03-05T08:59:32.471Z,64.80
2019-03-05T09:00:11.862Z,64.40
2019-03-05T09:00:48.126Z,64.20
2019-03-05T09:01:22.826Z,63.60
2019-03-05T09:01:57.390Z,63.60
2019-03-05T09:02:31.885Z,63.80
2019-03-05T09:03:06.462Z,63.90
2019-03-05T09:03:40.951Z,63.90
2019-03-05T09:04:15.452Z,63.80
2019-03-05T09:04:50.023Z,63.80
2019-03-05T09:05:24.600Z,64.00
2019-03-05T09:05:59.093Z,64.20
2019-03-05T09:06:33.576Z,63.90
2019-03-05T09:07:08.078Z,63.80
2019-03-05T09:07:42.914Z,64.00
2019-03-05T09:08:17.476Z,63.70
2019-03-05T09:08:51.961Z,63.20
2019-03-05T09:09:26.461Z,63.10
2019-03-05T09:10:00.954Z,64.10
2019-03-05T09:10:35.438Z,63.50
2019-03-05T09:11:09.949Z,63.70
2019-03-05T09:11:44.505Z,63.90
2019-03-05T09:12:19.013Z,63.30
2019-03-05T09:12:53.585Z,62.80
2019-03-05T09:13:32.579Z,63.00
2019-03-05T09:14:05.028Z,62.90
2019-03-05T09:14:39.510Z,62.60
2019-03-05T09:15:16.724Z,62.10
2019-03-05T09:15:51.220Z,62.00
2019-03-05T09:16:25.723Z,61.90
2019-03-05T09:17:00.287Z,61.40
2019-03-05T09:17:34.839Z,60.90
2019-03-05T09:18:09.326Z,60.90
2019-03-05T09:18:43.835Z,60.90
2019-03-05T09:19:18.317Z,60.70
2019-03-05T09:19:52.815Z,60.40
2019-03-05T09:20:27.594Z,60.50
2019-03-05T09:21:02.226Z,60.40
2019-03-05T09:21:36.788Z,60.70
2019-03-05T09:22:11.357Z,60.70
2019-03-05T09:22:45.837Z,60.80
2019-03-05T09:23:20.326Z,60.70
2019-03-05T09:23:54.822Z,60.40
2019-03-05T09:24:29.337Z,60.60
2019-03-05T09:25:05.438Z,60.70
2019-03-05T09:25:39.925Z,61.00
2019-03-05T09:26:14.480Z,61.00
2019-03-05T09:26:51.566Z,60.80
2019-03-05T09:27:25.147Z,60.60
2019-03-05T09:27:59.636Z,60.00
2019-03-05T09:28:34.120Z,60.20
2019-03-05T09:29:08.674Z,60.00
2019-03-05T09:29:43.166Z,60.20
2019-03-05T09:30:23.323Z,60.20
2019-03-05T09:30:57.804Z,60.40
2019-03-05T09:31:32.322Z,60.40
2019-03-05T09:32:06.889Z,60.50
2019-03-05T09:32:41.388Z,60.70
2019-03-05T09:33:15.941Z,60.60
2019-03-05T09:33:50.463Z,60.70
2019-03-05T09:34:24.945Z,60.80
2019-03-05T09:34:59.505Z,60.80
2019-03-05T09:35:33.992Z,60.80
2019-03-05T09:36:08.773Z,60.70
2019-03-05T09:36:50.818Z,60.70
2019-03-05T09:37:19.853Z,60.70
2019-03-05T09:37:54.345Z,61.00
2019-03-05T09:38:28.833Z,60.70
2019-03-05T09:39:04.465Z,61.50
2019-03-05T09:39:39.022Z,60.80
2019-03-05T09:40:33.275Z,60.80
2019-03-05T09:41:07.835Z,60.90
2019-03-05T09:41:42.411Z,60.90
2019-03-05T09:42:17.298Z,60.50
2019-03-05T09:42:52.062Z,60.50
2019-03-05T09:43:26.762Z,60.30
2019-03-05T09:44:01.251Z,60.10
2019-03-05T09:44:35.738Z,60.20
2019-03-05T09:45:13.342Z,60.20
2019-03-05T09:45:47.841Z,60.10
2019-03-05T09:46:22.354Z,60.00
2019-03-05T09:46:56.839Z,60.10
2019-03-05T09:47:31.333Z,60.20
2019-03-05T09:48:05.893Z,59.70
2019-03-05T09:48:40.389Z,59.10
2019-03-05T09:49:14.874Z,59.10
2019-03-05T09:49:49.370Z,59.00
2019-03-05T09:50:23.860Z,59.10
2019-03-05T09:50:58.345Z,59.20
2019-03-05T09:51:32.833Z,59.30
2019-03-05T09:52:07.318Z,59.50
2019-03-05T09:52:41.883Z,60.30
2019-03-05T09:53:16.406Z,59.50
2019-03-05T09:53:50.901Z,59.50
2019-03-05T09:54:25.383Z,59.30
2019-03-05T09:54:59.867Z,59.30
2019-03-05T09:55:34.359Z,59.30
2019-03-05T09:56:08.920Z,59.40
2019-03-05T09:56:43.413Z,59.40
2019-03-05T09:57:17.915Z,59.20
2019-03-05T09:58:06.931Z,59.00
2019-03-05T09:58:31.511Z,59.10
2019-03-05T09:59:06.096Z,59.20
2019-03-05T09:59:40.674Z,59.40
2019-03-05T10:00:23.715Z,59.30
2019-03-05T10:00:58.279Z,59.50
2019-03-05T10:01:33.118Z,59.60
2019-03-05T10:02:07.633Z,59.70
2019-03-05T10:02:42.236Z,59.30
2019-03-05T10:03:18.451Z,59.20
2019-03-05T10:03:53.197Z,59.50
2019-03-05T10:04:27.700Z,59.50
2019-03-05T10:05:02.205Z,59.60
2019-03-05T10:05:36.768Z,59.70
2019-03-05T10:06:11.403Z,59.60
2019-03-05T10:06:45.957Z,59.70
2019-03-05T10:07:20.452Z,59.70
2019-03-05T10:07:54.972Z,59.50
2019-03-05T10:08:32.649Z,59.40
2019-03-05T10:09:06.661Z,59.50
2019-03-05T10:09:41.158Z,59.30
2019-03-05T10:10:29.808Z,59.20
2019-03-05T10:11:04.629Z,59.30
2019-03-05T10:11:39.126Z,58.80
2019-03-05T10:12:13.755Z,58.80
2019-03-05T10:12:48.237Z,58.80
2019-03-05T10:13:22.720Z,58.60
2019-03-05T10:13:57.198Z,58.20
2019-03-05T10:14:31.684Z,57.90
2019-03-05T10:15:09.258Z,58.00
2019-03-05T10:15:43.742Z,58.10
2019-03-05T10:16:18.248Z,57.50